createdAt,value
2022-09-26T00:01:29.823Z,2.83
2022-09-26T00:04:00.535Z,4.90
2022-09-26T00:06:27.765Z,2.55
2022-09-26T00:08:55.385Z,2.92
2022-09-26T00:11:25.596Z,2.80
2022-09-26T00:13:54.634Z,2.70
2022-09-26T00:16:22.203Z,5.03
2022-09-26T00:18:50.317Z,5.57
2022-09-26T00:21:18.642Z,2.92
2022-09-26T00:23:45.896Z,2.70
2022-09-26T00:26:14.901Z,3.53
2022-09-26T00:28:41.971Z,5.03
2022-09-26T00:31:12.122Z,4.93
2022-09-26T00:33:39.105Z,4.28
2022-09-26T00:36:06.918Z,4.22
2022-09-26T00:38:34.111Z,5.85
2022-09-26T00:41:01.108Z,4.47
2022-09-26T00:43:33.172Z,5.10
2022-09-26T00:46:06.118Z,5.95
2022-09-26T00:48:36.070Z,4.88
2022-09-26T00:51:04.359Z,2.67
2022-09-26T00:53:38.350Z,4.05
2022-09-26T00:56:11.249Z,6.35
2022-09-26T00:59:03.731Z,5.40
2022-09-26T01:01:30.907Z,4.10
2022-09-26T01:03:59.115Z,5.25
2022-09-26T01:06:26.301Z,5.68
2022-09-26T01:08:58.602Z,6.10
2022-09-26T01:11:25.560Z,6.43
2022-09-26T01:13:53.982Z,4.15
2022-09-26T01:16:21.392Z,5.78
2022-09-26T01:18:48.847Z,5.03
2022-09-26T01:21:54.362Z,7.45
2022-09-26T01:24:39.517Z,8.60
2022-09-26T01:27:31.220Z,4.60
2022-09-26T01:30:13.285Z,7.05
2022-09-26T01:33:15.824Z,6.38
2022-09-26T01:36:19.347Z,5.60
2022-09-26T01:39:09.000Z,3.97
2022-09-26T01:41:51.295Z,4.15
2022-09-26T01:44:37.449Z,4.78
2022-09-26T01:47:04.285Z,5.57
2022-09-26T01:50:02.984Z,3.83
2022-09-26T01:52:43.489Z,3.75
2022-09-26T01:55:26.023Z,3.35
2022-09-26T01:57:56.956Z,3.17
2022-09-26T02:00:24.039Z,3.72
2022-09-26T02:02:51.388Z,2.88
2022-09-26T02:05:59.704Z,3.55
2022-09-26T02:08:44.028Z,2.90
2022-09-26T02:11:15.248Z,2.50
2022-09-26T02:13:56.986Z,4.28
2022-09-26T02:16:40.112Z,4.28
2022-09-26T02:19:14.136Z,2.88
2022-09-26T02:21:43.448Z,3.42
2022-09-26T02:24:10.318Z,3.85
2022-09-26T02:26:37.332Z,2.15
2022-09-26T02:29:05.373Z,3.63
2022-09-26T02:31:36.573Z,2.08
2022-09-26T02:34:04.636Z,2.75
2022-09-26T02:36:34.679Z,2.55
2022-09-26T02:39:02.277Z,3.55
2022-09-26T02:42:01.415Z,2.30
2022-09-26T02:45:02.966Z,3.05
2022-09-26T02:47:51.628Z,2.75
2022-09-26T02:50:47.038Z,3.50
2022-09-26T02:53:29.445Z,3.72
2022-09-26T02:56:16.532Z,2.17
2022-09-26T02:59:00.797Z,2.30
2022-09-26T03:01:47.194Z,3.65
2022-09-26T03:04:32.799Z,1.80
2022-09-26T03:07:04.609Z,2.55
2022-09-26T03:09:32.341Z,2.08
2022-09-26T03:12:02.419Z,1.52
2022-09-26T03:14:31.488Z,2.00
2022-09-26T03:16:59.131Z,2.03
2022-09-26T03:19:48.467Z,1.80
2022-09-26T03:22:16.532Z,2.10
2022-09-26T03:24:44.564Z,2.15
2022-09-26T03:27:14.081Z,2.15
2022-09-26T03:29:41.206Z,2.55
2022-09-26T03:32:08.145Z,2.30
2022-09-26T03:34:35.034Z,1.67
2022-09-26T03:37:01.866Z,2.25
2022-09-26T03:39:28.698Z,2.38
2022-09-26T03:41:58.273Z,3.05
2022-09-26T03:44:25.496Z,2.78
2022-09-26T03:46:52.405Z,2.42
2022-09-26T03:49:19.281Z,2.40
2022-09-26T03:51:46.198Z,2.10
2022-09-26T03:54:13.465Z,1.77
2022-09-26T03:56:41.289Z,2.20
2022-09-26T03:59:09.265Z,2.17
2022-09-26T04:01:36.186Z,1.38
2022-09-26T04:04:03.143Z,2.53
2022-09-26T04:06:30.031Z,2.08
2022-09-26T04:08:57.189Z,1.38
2022-09-26T04:11:24.768Z,2.78
2022-09-26T04:13:53.833Z,1.83
2022-09-26T04:16:24.042Z,1.98
2022-09-26T04:18:56.863Z,2.10
2022-09-26T04:21:27.191Z,2.08
2022-09-26T04:23:54.818Z,1.98
2022-09-26T04:26:26.082Z,2.47
2022-09-26T04:28:55.822Z,3.58
2022-09-26T04:31:23.996Z,3.50
2022-09-26T04:33:51.422Z,2.13
2022-09-26T04:36:18.667Z,1.75
2022-09-26T04:38:45.516Z,1.40
2022-09-26T04:41:15.259Z,1.90
2022-09-26T04:43:42.732Z,2.35
2022-09-26T04:46:21.037Z,2.20
2022-09-26T04:48:53.320Z,2.53
2022-09-26T04:51:21.649Z,1.63
2022-09-26T04:53:48.977Z,1.48
2022-09-26T04:56:17.796Z,1.42
2022-09-26T04:58:45.858Z,1.80
2022-09-26T05:01:15.560Z,2.42
2022-09-26T05:03:42.689Z,2.00
2022-09-26T05:06:10.747Z,1.95
2022-09-26T05:08:39.567Z,1.77
2022-09-26T05:11:07.473Z,1.98
2022-09-26T05:13:35.538Z,2.00
2022-09-26T05:16:03.015Z,1.45
2022-09-26T05:18:30.325Z,2.50
2022-09-26T05:20:57.889Z,2.63
2022-09-26T05:23:45.388Z,1.60
2022-09-26T05:26:28.512Z,2.05
2022-09-26T05:29:08.370Z,2.15
2022-09-26T05:31:37.747Z,1.83
2022-09-26T05:34:18.528Z,1.77
2022-09-26T05:36:46.201Z,1.13
2022-09-26T05:39:31.809Z,1.40
2022-09-26T05:41:59.396Z,1.33
2022-09-26T05:44:26.676Z,0.98
2022-09-26T05:46:53.748Z,1.60
2022-09-26T05:49:20.652Z,1.65
2022-09-26T05:51:47.485Z,0.98
2022-09-26T05:54:14.481Z,2.10
2022-09-26T05:56:41.415Z,1.63
2022-09-26T05:59:08.334Z,1.52
2022-09-26T06:01:35.422Z,1.30
2022-09-26T06:04:05.493Z,1.50
2022-09-26T06:06:32.382Z,1.95
2022-09-26T06:09:00.136Z,1.15
2022-09-26T06:11:31.120Z,1.70
2022-09-26T06:14:00.931Z,1.23
2022-09-26T06:16:28.807Z,1.35
2022-09-26T06:18:56.092Z,0.93
2022-09-26T06:21:23.724Z,0.68
2022-09-26T06:23:50.586Z,0.60
2022-09-26T06:26:23.668Z,0.75
2022-09-26T06:29:00.283Z,0.93
2022-09-26T06:31:28.454Z,1.35
2022-09-26T06:33:55.493Z,0.75
2022-09-26T06:36:23.806Z,1.23
2022-09-26T06:38:51.530Z,1.27
2022-09-26T06:41:18.664Z,1.08
2022-09-26T06:43:46.227Z,1.10
2022-09-26T06:46:14.990Z,0.90
2022-09-26T06:48:42.186Z,0.98
2022-09-26T06:51:09.456Z,1.73
2022-09-26T06:53:36.417Z,0.73
2022-09-26T06:56:03.365Z,0.90
2022-09-26T06:58:30.335Z,0.63
2022-09-26T07:00:59.362Z,1.70
2022-09-26T07:03:26.730Z,0.70
2022-09-26T07:05:56.823Z,0.88
2022-09-26T07:08:37.661Z,0.82
2022-09-26T07:14:00.065Z,1.15
2022-09-26T07:16:27.271Z,0.82
2022-09-26T07:18:55.172Z,0.50
2022-09-26T07:21:22.010Z,1.10
2022-09-26T07:23:49.082Z,1.30
2022-09-26T07:26:15.913Z,1.30
2022-09-26T07:28:42.744Z,0.68
2022-09-26T07:31:10.049Z,1.80
2022-09-26T07:33:36.958Z,0.82
2022-09-26T07:36:05.698Z,0.70
2022-09-26T07:38:32.823Z,1.00
2022-09-26T07:41:00.892Z,0.50
2022-09-26T07:44:00.149Z,0.73
2022-09-26T07:46:33.693Z,0.63
2022-09-26T07:49:19.252Z,0.65
2022-09-26T07:51:46.203Z,1.13
2022-09-26T07:54:13.134Z,0.98
2022-09-26T07:56:40.407Z,0.80
2022-09-26T07:59:07.300Z,0.60
2022-09-26T08:01:37.685Z,1.15
2022-09-26T08:04:06.402Z,1.15
2022-09-26T08:06:35.192Z,0.70
2022-09-26T08:09:02.143Z,1.10
2022-09-26T08:11:29.357Z,0.50
2022-09-26T08:13:56.204Z,0.75
2022-09-26T08:16:23.596Z,0.80
2022-09-26T08:18:51.513Z,0.82
2022-09-26T08:21:18.952Z,1.02
2022-09-26T08:23:46.960Z,1.75
2022-09-26T08:26:14.450Z,1.77
2022-09-26T08:28:42.121Z,1.00
2022-09-26T08:31:09.136Z,1.15
2022-09-26T08:33:38.912Z,0.70
2022-09-26T08:36:06.874Z,0.70
2022-09-26T08:38:35.523Z,1.13
2022-09-26T08:41:32.446Z,0.47
2022-09-26T08:44:22.503Z,0.73
2022-09-26T08:47:02.416Z,0.68
2022-09-26T08:49:58.156Z,0.90
2022-09-26T08:52:37.314Z,1.73
2022-09-26T08:55:31.407Z,1.38
2022-09-26T08:58:29.369Z,0.90
2022-09-26T09:01:01.570Z,0.88
2022-09-26T09:03:36.848Z,0.70
2022-09-26T09:06:12.001Z,0.85
2022-09-26T09:08:43.246Z,1.52
2022-09-26T09:11:34.958Z,0.98
2022-09-26T09:14:38.068Z,1.08
2022-09-26T09:17:16.750Z,1.48
2022-09-26T09:20:02.410Z,0.82
2022-09-26T09:22:47.349Z,1.25
2022-09-26T09:25:35.493Z,1.00
2022-09-26T09:28:41.084Z,1.58
2022-09-26T09:31:13.270Z,1.88
2022-09-26T09:33:47.993Z,0.98
2022-09-26T09:36:22.902Z,1.15
2022-09-26T09:38:51.102Z,1.85
2022-09-26T09:41:48.425Z,0.98
2022-09-26T09:47:18.019Z,1.60
2022-09-26T09:49:47.634Z,1.55
2022-09-26T09:52:14.423Z,1.00
2022-09-26T09:54:55.595Z,0.98
2022-09-26T09:57:50.437Z,0.95
2022-09-26T10:00:22.668Z,1.45
2022-09-26T10:03:03.444Z,2.10
2022-09-26T10:05:47.996Z,1.75
2022-09-26T10:08:19.624Z,0.88
2022-09-26T10:11:19.513Z,1.05
2022-09-26T10:13:50.232Z,0.77
2022-09-26T10:16:17.395Z,0.75
2022-09-26T10:19:04.670Z,1.23
2022-09-26T10:21:34.840Z,1.00
2022-09-26T10:24:06.802Z,0.85
2022-09-26T10:26:36.511Z,0.80
2022-09-26T10:29:25.263Z,0.93
2022-09-26T10:31:56.917Z,0.57
2022-09-26T10:34:25.736Z,1.67
2022-09-26T10:36:53.150Z,1.08
2022-09-26T10:39:43.789Z,0.85
2022-09-26T10:42:20.260Z,0.93
2022-09-26T10:44:48.611Z,1.00
2022-09-26T10:47:19.230Z,0.80
2022-09-26T10:50:11.687Z,0.68
2022-09-26T10:52:45.804Z,0.80
2022-09-26T10:55:26.631Z,1.00
2022-09-26T10:57:56.888Z,1.10
2022-09-26T11:00:40.365Z,0.88
2022-09-26T11:03:15.363Z,1.30
2022-09-26T11:05:56.906Z,0.70
2022-09-26T11:08:32.542Z,1.00
2022-09-26T11:11:02.312Z,0.98
2022-09-26T11:13:39.013Z,1.02
2022-09-26T11:16:14.785Z,0.85
2022-09-26T11:18:43.128Z,0.80
2022-09-26T11:21:28.923Z,0.70
2022-09-26T11:24:37.398Z,1.17
2022-09-26T11:29:53.216Z,0.75
2022-09-26T11:32:32.292Z,0.47
2022-09-26T11:35:03.821Z,0.73
2022-09-26T11:37:37.024Z,0.63
2022-09-26T11:40:09.266Z,0.70
2022-09-26T11:42:55.665Z,0.57
2022-09-26T11:45:40.921Z,0.68
2022-09-26T11:48:37.636Z,0.40
2022-09-26T11:51:34.508Z,0.60
2022-09-26T11:54:18.318Z,1.08
2022-09-26T11:57:01.673Z,1.08
2022-09-26T11:59:52.867Z,1.00
2022-09-26T12:02:41.882Z,0.88
2022-09-26T12:05:27.674Z,1.27
2022-09-26T12:08:07.565Z,0.90
2022-09-26T12:10:53.431Z,1.00
2022-09-26T12:13:20.258Z,2.10
2022-09-26T12:16:15.010Z,1.15
2022-09-26T12:19:16.966Z,1.38
2022-09-26T12:22:14.398Z,1.50
2022-09-26T12:25:07.393Z,1.00
2022-09-26T12:28:08.213Z,1.23
2022-09-26T12:30:43.213Z,1.50
2022-09-26T12:33:25.037Z,0.82
2022-09-26T12:36:07.504Z,1.58
2022-09-26T12:38:34.973Z,1.20
2022-09-26T12:41:17.083Z,1.10
2022-09-26T12:44:02.445Z,1.75
2022-09-26T12:47:07.603Z,1.73
2022-09-26T12:49:45.318Z,1.35
2022-09-26T12:52:33.034Z,1.40
2022-09-26T12:55:12.615Z,1.23
2022-09-26T12:58:16.909Z,1.30
2022-09-26T13:01:02.921Z,1.13
2022-09-26T13:03:46.810Z,1.00
2022-09-26T13:06:52.845Z,0.35
2022-09-26T13:09:39.749Z,0.60
2022-09-26T13:12:31.718Z,1.23
2022-09-26T13:15:00.749Z,0.80
2022-09-26T13:17:41.774Z,0.85
2022-09-26T13:20:29.837Z,1.40
2022-09-26T13:23:09.874Z,1.15
2022-09-26T13:25:49.693Z,1.40
2022-09-26T13:28:24.272Z,1.20
2022-09-26T13:31:02.559Z,1.48
2022-09-26T13:33:43.030Z,1.17
2022-09-26T13:36:11.410Z,0.88
2022-09-26T13:38:45.974Z,1.00
2022-09-26T13:41:22.752Z,0.88
2022-09-26T13:43:57.445Z,1.00
2022-09-26T13:46:48.494Z,0.60
2022-09-26T13:49:43.200Z,0.65
2022-09-26T13:52:24.016Z,0.88
2022-09-26T13:55:14.529Z,0.73
2022-09-26T13:58:07.024Z,0.60
2022-09-26T14:00:49.100Z,0.70
2022-09-26T14:03:17.275Z,1.17
2022-09-26T14:05:44.291Z,1.00
2022-09-26T14:08:49.101Z,0.77
2022-09-26T14:11:51.515Z,1.40
2022-09-26T14:14:37.644Z,0.95
2022-09-26T14:17:42.510Z,0.88
2022-09-26T14:20:20.757Z,1.45
2022-09-26T14:22:53.000Z,2.17
2022-09-26T14:25:44.784Z,1.63
2022-09-26T14:28:21.445Z,2.15
2022-09-26T14:31:11.965Z,1.48
2022-09-26T14:33:40.037Z,1.98
2022-09-26T14:36:35.097Z,1.33
2022-09-26T14:39:04.206Z,1.42
2022-09-26T14:41:34.806Z,1.60
2022-09-26T14:44:05.665Z,2.28
2022-09-26T14:46:35.510Z,1.70
2022-09-26T14:49:06.394Z,2.75
2022-09-26T14:51:37.189Z,1.77
2022-09-26T14:54:07.741Z,2.15
2022-09-26T14:56:43.242Z,2.28
2022-09-26T14:59:25.509Z,2.07
2022-09-26T15:01:55.089Z,2.05
2022-09-26T15:04:27.816Z,1.10
2022-09-26T15:07:00.350Z,1.50
2022-09-26T15:09:51.167Z,2.10
2022-09-26T15:12:25.956Z,1.00
2022-09-26T15:15:04.919Z,2.42
2022-09-26T15:17:34.951Z,1.30
2022-09-26T15:20:05.753Z,1.83
2022-09-26T15:22:34.124Z,1.60
2022-09-26T15:25:09.091Z,2.35
2022-09-26T15:27:36.164Z,2.75
2022-09-26T15:30:15.899Z,2.40
2022-09-26T15:32:42.910Z,1.92
2022-09-26T15:35:13.597Z,2.50
2022-09-26T15:37:41.483Z,1.60
2022-09-26T15:40:22.837Z,1.60
2022-09-26T15:42:59.242Z,2.25
2022-09-26T15:48:05.771Z,2.22
2022-09-26T15:50:47.958Z,1.63
2022-09-26T15:53:17.661Z,1.50
2022-09-26T15:56:00.750Z,1.50
2022-09-26T15:58:40.096Z,2.05
2022-09-26T16:01:14.913Z,1.80
2022-09-26T16:04:30.348Z,1.70
2022-09-26T16:07:01.078Z,1.25
2022-09-26T16:09:35.016Z,1.13
2022-09-26T16:12:17.045Z,2.15
2022-09-26T16:14:48.293Z,2.60
2022-09-26T16:17:21.524Z,1.55
2022-09-26T16:19:57.810Z,2.28
2022-09-26T16:25:24.118Z,1.20
2022-09-26T16:27:59.495Z,2.03
2022-09-26T16:30:30.072Z,1.83
2022-09-26T16:33:02.763Z,2.00
2022-09-26T16:35:31.652Z,2.08
2022-09-26T16:38:02.554Z,1.02
2022-09-26T16:40:30.983Z,1.65
2022-09-26T16:43:12.732Z,1.67
2022-09-26T16:45:51.160Z,0.88
2022-09-26T16:48:36.660Z,1.52
2022-09-26T16:51:17.212Z,1.90
2022-09-26T16:53:48.544Z,1.30
2022-09-26T16:56:19.151Z,1.90
2022-09-26T16:58:53.264Z,2.13
2022-09-26T17:01:38.864Z,1.95
2022-09-26T17:04:11.787Z,1.58
2022-09-26T17:06:38.663Z,1.52
2022-09-26T17:09:14.786Z,1.40
2022-09-26T17:11:42.069Z,1.77
2022-09-26T17:14:13.672Z,1.48
2022-09-26T17:16:40.802Z,1.70
2022-09-26T17:19:12.445Z,2.38
2022-09-26T17:21:39.336Z,2.53
2022-09-26T17:24:14.992Z,2.70
2022-09-26T17:26:50.937Z,2.38
2022-09-26T17:29:22.798Z,1.98
2022-09-26T17:31:50.037Z,2.30
2022-09-26T17:34:16.961Z,2.95
2022-09-26T17:36:47.575Z,1.88
2022-09-26T17:39:18.406Z,1.17
2022-09-26T17:41:45.273Z,1.40
2022-09-26T17:44:12.201Z,1.73
2022-09-26T17:46:39.513Z,0.85
2022-09-26T17:49:13.066Z,0.70
2022-09-26T17:51:42.274Z,1.40
2022-09-26T17:54:17.284Z,1.50
2022-09-26T17:56:44.377Z,1.92
2022-09-26T17:59:22.677Z,3.28
2022-09-26T18:02:02.967Z,1.30
2022-09-26T18:04:30.949Z,1.80
2022-09-26T18:07:02.080Z,1.10
2022-09-26T18:09:33.025Z,2.88
2022-09-26T18:12:02.815Z,2.20
2022-09-26T18:14:32.045Z,2.20
2022-09-26T18:16:59.594Z,1.63
2022-09-26T18:19:26.599Z,2.47
2022-09-26T18:21:56.037Z,2.88
2022-09-26T18:24:27.355Z,1.20
2022-09-26T18:26:57.348Z,1.67
2022-09-26T18:29:39.936Z,2.80
2022-09-26T18:32:13.724Z,1.77
2022-09-26T18:34:40.590Z,2.47
2022-09-26T18:37:08.403Z,2.88
2022-09-26T18:39:36.439Z,1.98
2022-09-26T18:42:09.275Z,2.80
2022-09-26T18:44:36.930Z,1.73
2022-09-26T18:47:07.892Z,2.33
2022-09-26T18:49:36.972Z,3.42
2022-09-26T18:52:04.096Z,1.20
2022-09-26T18:54:33.014Z,1.65
2022-09-26T18:57:18.394Z,1.85
2022-09-26T18:59:45.499Z,1.63
2022-09-26T19:02:25.511Z,2.30
2022-09-26T19:04:56.098Z,0.98
2022-09-26T19:07:24.701Z,1.17
2022-09-26T19:09:52.105Z,1.38
2022-09-26T19:12:19.093Z,2.53
2022-09-26T19:14:46.061Z,0.95
2022-09-26T19:17:13.272Z,1.30
2022-09-26T19:19:40.321Z,3.33
2022-09-26T19:22:13.740Z,1.65
2022-09-26T19:24:45.970Z,1.67
2022-09-26T19:27:26.558Z,2.22
2022-09-26T19:30:06.603Z,2.80
2022-09-26T19:32:38.478Z,2.42
2022-09-26T19:35:30.665Z,1.42
2022-09-26T19:37:58.837Z,1.77
2022-09-26T19:40:27.140Z,2.05
2022-09-26T19:42:55.181Z,2.17
2022-09-26T19:45:22.319Z,1.60
2022-09-26T19:47:54.594Z,1.65
2022-09-26T19:50:28.482Z,0.98
2022-09-26T19:52:57.529Z,1.60
2022-09-26T19:55:29.924Z,3.25
2022-09-26T19:58:06.789Z,1.17
2022-09-26T20:00:41.338Z,1.20
2022-09-26T20:03:25.606Z,1.75
2022-09-26T20:05:52.608Z,2.15
2022-09-26T20:08:23.625Z,2.13
2022-09-26T20:10:51.025Z,2.47
2022-09-26T20:13:18.638Z,2.25
2022-09-26T20:15:46.143Z,2.55
2022-09-26T20:18:17.714Z,1.77
2022-09-26T20:20:52.653Z,2.08
2022-09-26T20:23:22.261Z,1.00
2022-09-26T20:25:51.806Z,1.65
2022-09-26T20:28:18.861Z,1.42
2022-09-26T20:30:51.521Z,2.08
2022-09-26T20:33:21.918Z,2.47
2022-09-26T20:35:53.991Z,2.05
2022-09-26T20:38:30.585Z,1.70
2022-09-26T20:41:13.399Z,1.58
2022-09-26T20:43:41.534Z,1.40
2022-09-26T20:46:10.922Z,1.67
2022-09-26T20:48:42.062Z,0.90
2022-09-26T20:51:19.707Z,1.20
2022-09-26T20:53:46.557Z,1.48
2022-09-26T20:56:20.853Z,3.25
2022-09-26T20:58:48.375Z,2.00
2022-09-26T21:01:17.443Z,2.45
2022-09-26T21:03:48.960Z,3.00
2022-09-26T21:06:18.569Z,1.77
2022-09-26T21:08:46.320Z,1.90
2022-09-26T21:11:15.308Z,2.33
2022-09-26T21:13:43.253Z,1.85
2022-09-26T21:16:16.664Z,2.35
2022-09-26T21:18:46.212Z,2.45
2022-09-26T21:21:45.592Z,1.60
2022-09-26T21:24:28.899Z,2.55
2022-09-26T21:26:55.902Z,2.70
2022-09-26T21:29:22.836Z,1.52
2022-09-26T21:31:52.744Z,2.15
2022-09-26T21:34:26.271Z,2.00
2022-09-26T21:36:55.286Z,1.40
2022-09-26T21:39:24.228Z,1.88
2022-09-26T21:41:53.703Z,2.55
2022-09-26T21:44:23.420Z,1.92
2022-09-26T21:46:51.114Z,1.90
2022-09-26T21:49:18.289Z,2.95
2022-09-26T21:51:50.702Z,1.90
2022-09-26T21:54:21.273Z,1.95
2022-09-26T21:57:19.033Z,1.70
2022-09-26T21:59:47.691Z,2.53
2022-09-26T22:02:14.810Z,2.30
2022-09-26T22:04:41.659Z,1.92
2022-09-26T22:07:08.591Z,1.58
2022-09-26T22:09:35.753Z,1.92
2022-09-26T22:12:02.640Z,1.88
2022-09-26T22:14:29.549Z,1.63
2022-09-26T22:16:57.631Z,1.92
2022-09-26T22:19:24.631Z,1.98
2022-09-26T22:21:51.485Z,1.23
2022-09-26T22:24:18.506Z,2.47
2022-09-26T22:26:45.653Z,1.65
2022-09-26T22:29:12.953Z,1.83
2022-09-26T22:31:39.826Z,1.40
2022-09-26T22:34:06.671Z,2.65
2022-09-26T22:36:33.566Z,1.48
2022-09-26T22:39:00.666Z,1.23
2022-09-26T22:41:27.541Z,0.70
2022-09-26T22:43:54.444Z,1.05
2022-09-26T22:46:21.699Z,1.30
2022-09-26T22:48:49.146Z,1.00
2022-09-26T22:51:17.059Z,1.65
2022-09-26T22:53:44.522Z,1.92
2022-09-26T22:56:13.839Z,2.22
2022-09-26T22:58:47.072Z,2.22
2022-09-26T23:01:23.465Z,2.83
2022-09-26T23:03:54.598Z,1.85
2022-09-26T23:06:23.064Z,1.90
2022-09-26T23:08:50.570Z,1.60
2022-09-26T23:11:18.584Z,1.55
2022-09-26T23:13:46.705Z,1.77
2022-09-26T23:16:17.266Z,1.30
2022-09-26T23:18:44.601Z,1.48
2022-09-26T23:21:17.296Z,1.90
2022-09-26T23:23:46.029Z,1.35
2022-09-26T23:26:22.156Z,2.65
2022-09-26T23:28:53.511Z,0.75
2022-09-26T23:31:21.154Z,0.98
2022-09-26T23:33:48.430Z,1.35
2022-09-26T23:36:15.663Z,1.20
2022-09-26T23:38:42.700Z,2.22
2022-09-26T23:41:11.405Z,1.55
2022-09-26T23:43:39.075Z,2.05
2022-09-26T23:46:06.655Z,1.98
2022-09-26T23:48:34.084Z,1.42
2022-09-26T23:51:01.092Z,1.77
2022-09-26T23:53:27.944Z,1.75
2022-09-26T23:56:03.941Z,1.40
2022-09-26T23:58:30.792Z,1.73
